• pl
  • eng

Awiacja
NEWS
last updated: 12.09.2019 14:49<\/div>
Dear users,
We would like to inform you that from September 2nd a test form of the GAFOR forecast is available on our webpage. Please send your comments and suggestions to gafor@imgw.pl that will contribute to product development.
Click on the bold red name to decode a message. 10:31 24.10.2020
  • WIND
  • SIGNIFICANT EURO
  • SIGNIFICANT
  • SIGMET
  • AIRMET
  • TAF FC
  • TAF FT
  • METAR GG30
  • METAR GG00


METAR EPBY 240830Z 23007KT 6000 OVC002 09/09 Q1012=

METAR EPGD 240830Z 24008KT CAVOK 10/08 Q1009 =

METAR EPKK 240830Z 24011KT 6000 SCT008 BKN015 12/11 Q1015 =

METAR EPKT 240830Z 27008KT 8000 BKN005 12/11 Q1015 =

METAR EPLB 240830Z 24010KT 6000 SCT008 BKN029 12/12 Q1012 =

METAR EPLL 240830Z 28009KT 9999 BKN010 13/10 Q1013 =

METAR EPMO 240830Z 31007KT 280V340 9999 BKN010 13/12 Q1011 =

METAR EPPO 240830Z 22006KT 3500 BR BKN001 10/10 Q1013 =

METAR EPRA 240830Z NIL=

METAR EPRZ 240830Z 23009KT 9999 BKN024 14/10 Q1014 =

METAR EPSC 240830Z 19006KT 150V220 7000 FEW003 OVC004 12/12 Q1011 =

METAR EPSY 240830Z 29006KT 240V320 9999 BKN004 11/10 Q1011=

METAR EPWA 240830Z 29007KT 9999 SCT008 BKN020 14/13 Q1011 NOSIG=

METAR EPWR 240830Z 28006KT 9999 SCT009 15/12 Q1014 =

METAR EPZG 240830Z 23008KT 3400 BR OVC003 12/11 Q1014 =
 METAR EPRA
:No METAR message from EPRA from day 24 from time 08:30 UTC
Awiacja.imgw.pl jest pogodowym serwisem informacyjnym
Instytutu Meteorologii i Gospodarki Wodnej Państwowego Instytutu Badawczego.
Copyright IMGW PIB 2009-2019© Wszelkie prawa zastrzeżone.